sensor_id;sensor_type;location;lat;lon;timestamp;pressure;altitude;pressure_sealevel;temperature;humidity
42727;BME280;28372;56.832;60.658;2022-12-15T00:02:42;99346.84;;;-15.14;90.86
42727;BME280;28372;56.832;60.658;2022-12-15T00:05:28;99334.50;;;-15.12;90.97
42727;BME280;28372;56.832;60.658;2022-12-15T00:08:16;99342.13;;;-15.10;90.53
42727;BME280;28372;56.832;60.658;2022-12-15T00:11:02;99344.44;;;-15.24;91.23
42727;BME280;28372;56.832;60.658;2022-12-15T00:13:48;99325.09;;;-15.13;91.32
42727;BME280;28372;56.832;60.658;2022-12-15T00:16:34;99317.94;;;-15.11;90.97
42727;BME280;28372;56.832;60.658;2022-12-15T00:19:20;99317.16;;;-15.11;91.26
42727;BME280;28372;56.832;60.658;2022-12-15T00:22:06;99329.63;;;-15.07;91.09
42727;BME280;28372;56.832;60.658;2022-12-15T00:24:52;99334.19;;;-15.09;90.18
42727;BME280;28372;56.832;60.658;2022-12-15T00:27:38;99325.41;;;-15.08;90.33
42727;BME280;28372;56.832;60.658;2022-12-15T00:30:24;99331.22;;;-14.97;90.26
42727;BME280;28372;56.832;60.658;2022-12-15T00:33:10;99314.69;;;-15.05;90.18
42727;BME280;28372;56.832;60.658;2022-12-15T00:35:58;99323.59;;;-14.99;90.21
42727;BME280;28372;56.832;60.658;2022-12-15T00:38:44;99310.66;;;-15.07;89.43
42727;BME280;28372;56.832;60.658;2022-12-15T00:41:15;99308.63;;;-14.89;90.07
42727;BME280;28372;56.832;60.658;2022-12-15T00:43:43;99309.31;;;-14.95;89.55
42727;BME280;28372;56.832;60.658;2022-12-15T00:46:11;99301.97;;;-14.91;89.39
42727;BME280;28372;56.832;60.658;2022-12-15T00:48:57;99304.06;;;-14.87;88.83
42727;BME280;28372;56.832;60.658;2022-12-15T00:51:25;99302.78;;;-14.91;88.64
42727;BME280;28372;56.832;60.658;2022-12-15T00:54:11;99297.47;;;-14.97;88.11
42727;BME280;28372;56.832;60.658;2022-12-15T00:56:58;99292.63;;;-15.01;87.67
42727;BME280;28372;56.832;60.658;2022-12-15T00:59:43;99296.97;;;-15.01;87.96
42727;BME280;28372;56.832;60.658;2022-12-15T01:02:30;99273.00;;;-15.03;87.78
42727;BME280;28372;56.832;60.658;2022-12-15T01:05:16;99288.41;;;-15.02;87.76
42727;BME280;28372;56.832;60.658;2022-12-15T01:08:02;99292.97;;;-15.12;87.62
42727;BME280;28372;56.832;60.658;2022-12-15T01:10:48;99290.69;;;-15.07;87.21
42727;BME280;28372;56.832;60.658;2022-12-15T01:13:33;99279.84;;;-15.10;87.44
42727;BME280;28372;56.832;60.658;2022-12-15T01:16:20;99288.44;;;-15.18;87.42
42727;BME280;28372;56.832;60.658;2022-12-15T01:19:07;99275.28;;;-15.08;87.94
42727;BME280;28372;56.832;60.658;2022-12-15T01:21:53;99277.06;;;-15.09;86.65
42727;BME280;28372;56.832;60.658;2022-12-15T01:24:20;99267.22;;;-15.22;86.58
42727;BME280;28372;56.832;60.658;2022-12-15T01:26:48;99278.41;;;-15.21;87.11
42727;BME280;28372;56.832;60.658;2022-12-15T01:29:16;99276.78;;;-15.22;87.09
42727;BME280;28372;56.832;60.658;2022-12-15T01:31:43;99271.09;;;-15.18;87.25
42727;BME280;28372;56.832;60.658;2022-12-15T01:34:16;99277.59;;;-15.22;87.13
42727;BME280;28372;56.832;60.658;2022-12-15T01:36:46;99271.91;;;-15.17;86.55
42727;BME280;28372;56.832;60.658;2022-12-15T01:39:13;99268.41;;;-15.32;87.34
42727;BME280;28372;56.832;60.658;2022-12-15T01:41:41;99266.91;;;-15.19;86.92
42727;BME280;28372;56.832;60.658;2022-12-15T01:44:21;99279.06;;;-15.27;87.20
42727;BME280;28372;56.832;60.658;2022-12-15T01:46:52;99276.97;;;-15.24;87.06
42727;BME280;28372;56.832;60.658;2022-12-15T01:49:25;99263.56;;;-15.36;87.09
42727;BME280;28372;56.832;60.658;2022-12-15T01:51:57;99264.00;;;-15.32;86.62
42727;BME280;28372;56.832;60.658;2022-12-15T01:54:31;99242.47;;;-15.32;86.20
42727;BME280;28372;56.832;60.658;2022-12-15T01:57:17;99260.97;;;-15.44;86.78
42727;BME280;28372;56.832;60.658;2022-12-15T01:59:49;99252.72;;;-15.47;86.85
42727;BME280;28372;56.832;60.658;2022-12-15T02:02:21;99241.34;;;-15.38;86.86
42727;BME280;28372;56.832;60.658;2022-12-15T02:04:51;99248.97;;;-15.37;87.22
42727;BME280;28372;56.832;60.658;2022-12-15T02:07:20;99233.75;;;-15.48;87.01
42727;BME280;28372;56.832;60.658;2022-12-15T02:09:49;99226.13;;;-15.41;86.63
42727;BME280;28372;56.832;60.658;2022-12-15T02:31:32;99225.97;;;-15.48;89.08
42727;BME280;28372;56.832;60.658;2022-12-15T02:37:26;99210.59;;;-15.49;89.53
42727;BME280;28372;56.832;60.658;2022-12-15T02:39:55;99196.50;;;-15.55;89.60
42727;BME280;28372;56.832;60.658;2022-12-15T02:42:24;99206.38;;;-15.51;89.07
42727;BME280;28372;56.832;60.658;2022-12-15T02:45:00;99188.06;;;-15.57;88.67
42727;BME280;28372;56.832;60.658;2022-12-15T02:50:29;99190.59;;;-15.41;88.12
42727;BME280;28372;56.832;60.658;2022-12-15T02:53:27;99199.38;;;-15.50;87.64
42727;BME280;28372;56.832;60.658;2022-12-15T02:56:07;99191.31;;;-15.55;88.06
42727;BME280;28372;56.832;60.658;2022-12-15T02:59:45;99187.41;;;-15.51;88.09
42727;BME280;28372;56.832;60.658;2022-12-15T03:01:58;99202.19;;;-15.68;88.21
42727;BME280;28372;56.832;60.658;2022-12-15T03:04:27;99201.06;;;-15.65;89.07
42727;BME280;28372;56.832;60.658;2022-12-15T03:06:56;99209.94;;;-15.60;88.50
42727;BME280;28372;56.832;60.658;2022-12-15T03:09:27;99215.31;;;-15.61;88.52
42727;BME280;28372;56.832;60.658;2022-12-15T03:11:55;99217.09;;;-15.62;88.64
42727;BME280;28372;56.832;60.658;2022-12-15T03:14:23;99218.41;;;-15.66;88.23
42727;BME280;28372;56.832;60.658;2022-12-15T03:16:54;99232.63;;;-15.45;88.13
42727;BME280;28372;56.832;60.658;2022-12-15T03:19:22;99220.47;;;-15.53;87.39
42727;BME280;28372;56.832;60.658;2022-12-15T03:21:50;99211.06;;;-15.54;86.19
42727;BME280;28372;56.832;60.658;2022-12-15T03:24:18;99201.50;;;-15.54;86.40
42727;BME280;28372;56.832;60.658;2022-12-15T03:26:45;99197.66;;;-15.66;85.86
42727;BME280;28372;56.832;60.658;2022-12-15T03:29:16;99203.34;;;-15.71;85.08
42727;BME280;28372;56.832;60.658;2022-12-15T03:31:44;99208.66;;;-15.64;85.22
42727;BME280;28372;56.832;60.658;2022-12-15T03:34:15;99201.81;;;-15.57;85.00
42727;BME280;28372;56.832;60.658;2022-12-15T03:36:43;99203.94;;;-15.52;85.64
42727;BME280;28372;56.832;60.658;2022-12-15T03:39:10;99207.31;;;-15.52;84.42
42727;BME280;28372;56.832;60.658;2022-12-15T03:41:38;99206.38;;;-15.59;83.80
42727;BME280;28372;56.832;60.658;2022-12-15T03:44:07;99198.13;;;-15.62;83.68
42727;BME280;28372;56.832;60.658;2022-12-15T03:46:35;99194.28;;;-15.66;83.86
42727;BME280;28372;56.832;60.658;2022-12-15T03:49:02;99199.59;;;-15.68;83.23
42727;BME280;28372;56.832;60.658;2022-12-15T03:51:30;99192.00;;;-15.70;83.92
42727;BME280;28372;56.832;60.658;2022-12-15T03:53:57;99193.03;;;-15.79;83.31
42727;BME280;28372;56.832;60.658;2022-12-15T03:56:25;99184.44;;;-15.79;83.95
42727;BME280;28372;56.832;60.658;2022-12-15T03:58:52;99196.06;;;-15.75;84.41
42727;BME280;28372;56.832;60.658;2022-12-15T04:03:48;99191.88;;;-15.76;84.75
42727;BME280;28372;56.832;60.658;2022-12-15T04:06:15;99200.28;;;-15.74;84.15
42727;BME280;28372;56.832;60.658;2022-12-15T04:08:43;99191.50;;;-15.65;84.64
42727;BME280;28372;56.832;60.658;2022-12-15T04:11:16;99189.91;;;-15.74;84.17
42727;BME280;28372;56.832;60.658;2022-12-15T04:13:44;99197.13;;;-15.53;84.74
42727;BME280;28372;56.832;60.658;2022-12-15T04:16:12;99194.41;;;-15.68;83.20
42727;BME280;28372;56.832;60.658;2022-12-15T04:18:46;99204.97;;;-15.78;84.52
42727;BME280;28372;56.832;60.658;2022-12-15T04:21:33;99200.63;;;-15.77;84.31
42727;BME280;28372;56.832;60.658;2022-12-15T04:24:01;99197.50;;;-15.73;84.28
42727;BME280;28372;56.832;60.658;2022-12-15T04:26:47;99181.63;;;-15.78;84.73
42727;BME280;28372;56.832;60.658;2022-12-15T04:29:33;99203.56;;;-15.80;84.66
42727;BME280;28372;56.832;60.658;2022-12-15T04:32:18;99182.47;;;-15.77;85.52
42727;BME280;28372;56.832;60.658;2022-12-15T04:35:04;99186.50;;;-15.66;85.73
42727;BME280;28372;56.832;60.658;2022-12-15T04:37:50;99180.56;;;-15.83;86.78
42727;BME280;28372;56.832;60.658;2022-12-15T04:40:37;99188.22;;;-15.59;88.85
42727;BME280;28372;56.832;60.658;2022-12-15T04:43:23;99178.09;;;-15.37;91.23
42727;BME280;28372;56.832;60.658;2022-12-15T04:46:09;99174.78;;;-15.23;93.36
42727;BME280;28372;56.832;60.658;2022-12-15T04:48:55;99185.16;;;-14.91;97.07
42727;BME280;28372;56.832;60.658;2022-12-15T04:51:41;99189.66;;;-14.62;99.53
42727;BME280;28372;56.832;60.658;2022-12-15T04:54:27;99181.91;;;-14.32;100.00
42727;BME280;28372;56.832;60.658;2022-12-15T04:57:13;99171.03;;;-13.98;100.00
42727;BME280;28372;56.832;60.658;2022-12-15T04:59:59;99160.13;;;-13.63;100.00
42727;BME280;28372;56.832;60.658;2022-12-15T05:02:46;99164.41;;;-13.19;100.00
42727;BME280;28372;56.832;60.658;2022-12-15T05:05:32;99167.63;;;-12.80;100.00
42727;BME280;28372;56.832;60.658;2022-12-15T05:08:18;99162.50;;;-12.45;100.00
42727;BME280;28372;56.832;60.658;2022-12-15T05:11:04;99176.41;;;-12.10;93.37
42727;BME280;28372;56.832;60.658;2022-12-15T05:13:50;99171.97;;;-11.74;85.75
42727;BME280;28372;56.832;60.658;2022-12-15T05:16:36;99169.16;;;-11.44;80.64
42727;BME280;28372;56.832;60.658;2022-12-15T05:19:22;99172.13;;;-10.99;77.18
42727;BME280;28372;56.832;60.658;2022-12-15T05:22:08;99181.03;;;-10.60;69.06
42727;BME280;28372;56.832;60.658;2022-12-15T05:24:54;99176.59;;;-10.33;66.01
42727;BME280;28372;56.832;60.658;2022-12-15T05:27:40;99159.50;;;-10.08;64.16
42727;BME280;28372;56.832;60.658;2022-12-15T05:30:25;99158.44;;;-9.81;61.02
42727;BME280;28372;56.832;60.658;2022-12-15T05:33:11;99174.84;;;-9.40;59.40
42727;BME280;28372;56.832;60.658;2022-12-15T05:35:38;99154.19;;;-9.16;56.96
42727;BME280;28372;56.832;60.658;2022-12-15T05:38:06;99167.13;;;-8.83;55.82
42727;BME280;28372;56.832;60.658;2022-12-15T05:40:34;99163.84;;;-8.46;53.66
42727;BME280;28372;56.832;60.658;2022-12-15T05:43:01;99164.09;;;-8.29;51.54
42727;BME280;28372;56.832;60.658;2022-12-15T05:45:29;99145.47;;;-8.21;51.37
42727;BME280;28372;56.832;60.658;2022-12-15T05:47:56;99143.13;;;-7.85;49.85
42727;BME280;28372;56.832;60.658;2022-12-15T05:50:24;99149.91;;;-7.59;49.24
42727;BME280;28372;56.832;60.658;2022-12-15T05:52:52;99151.16;;;-7.43;48.28
42727;BME280;28372;56.832;60.658;2022-12-15T05:55:20;99162.94;;;-7.15;46.60
42727;BME280;28372;56.832;60.658;2022-12-15T05:57:52;99168.81;;;-7.13;45.69
42727;BME280;28372;56.832;60.658;2022-12-15T06:00:20;99179.59;;;-7.03;46.88
42727;BME280;28372;56.832;60.658;2022-12-15T06:02:48;99155.25;;;-6.68;46.18
42727;BME280;28372;56.832;60.658;2022-12-15T06:05:16;99154.56;;;-6.21;44.66
42727;BME280;28372;56.832;60.658;2022-12-15T06:07:44;99167.81;;;-6.16;43.49
42727;BME280;28372;56.832;60.658;2022-12-15T06:10:11;99148.34;;;-7.11;44.03
42727;BME280;28372;56.832;60.658;2022-12-15T06:12:39;99155.88;;;-8.07;46.02
42727;BME280;28372;56.832;60.658;2022-12-15T06:15:07;99145.47;;;-8.71;47.28
42727;BME280;28372;56.832;60.658;2022-12-15T06:17:34;99170.94;;;-9.17;48.37
42727;BME280;28372;56.832;60.658;2022-12-15T06:20:03;99151.13;;;-9.52;49.26
42727;BME280;28372;56.832;60.658;2022-12-15T06:22:30;99162.47;;;-9.85;50.27
42727;BME280;28372;56.832;60.658;2022-12-15T06:24:58;99122.50;;;-10.39;51.51
42727;BME280;28372;56.832;60.658;2022-12-15T06:27:26;99156.50;;;-10.45;51.99
42727;BME280;28372;56.832;60.658;2022-12-15T06:29:53;99148.22;;;-10.76;53.41
42727;BME280;28372;56.832;60.658;2022-12-15T06:32:20;99167.69;;;-10.92;53.98
42727;BME280;28372;56.832;60.658;2022-12-15T06:34:48;99163.19;;;-11.25;54.50
42727;BME280;28372;56.832;60.658;2022-12-15T06:37:16;99161.50;;;-11.39;55.22
42727;BME280;28372;56.832;60.658;2022-12-15T06:39:43;99171.44;;;-11.63;56.41
42727;BME280;28372;56.832;60.658;2022-12-15T06:42:11;99178.59;;;-11.78;56.53
42727;BME280;28372;56.832;60.658;2022-12-15T06:44:40;99177.84;;;-11.72;57.44
42727;BME280;28372;56.832;60.658;2022-12-15T06:47:08;99159.38;;;-11.71;57.56
42727;BME280;28372;56.832;60.658;2022-12-15T06:49:35;99161.81;;;-11.62;58.14
42727;BME280;28372;56.832;60.658;2022-12-15T06:52:03;99164.97;;;-11.74;58.09
42727;BME280;28372;56.832;60.658;2022-12-15T06:54:31;99150.22;;;-11.88;58.81
42727;BME280;28372;56.832;60.658;2022-12-15T06:56:58;99170.63;;;-12.05;59.03
42727;BME280;28372;56.832;60.658;2022-12-15T06:59:26;99150.78;;;-12.06;60.01
42727;BME280;28372;56.832;60.658;2022-12-15T07:01:53;99148.06;;;-12.19;60.40
42727;BME280;28372;56.832;60.658;2022-12-15T07:04:21;99149.69;;;-12.18;60.13
42727;BME280;28372;56.832;60.658;2022-12-15T07:06:49;99141.22;;;-12.20;61.22
42727;BME280;28372;56.832;60.658;2022-12-15T07:09:16;99129.00;;;-12.20;60.96
42727;BME280;28372;56.832;60.658;2022-12-15T07:11:44;99147.69;;;-12.16;61.17
42727;BME280;28372;56.832;60.658;2022-12-15T07:14:12;99141.00;;;-12.26;61.17
42727;BME280;28372;56.832;60.658;2022-12-15T07:16:40;99126.59;;;-12.21;61.84
42727;BME280;28372;56.832;60.658;2022-12-15T07:19:09;99127.06;;;-12.11;62.25
42727;BME280;28372;56.832;60.658;2022-12-15T07:21:38;99127.66;;;-12.09;61.96
42727;BME280;28372;56.832;60.658;2022-12-15T07:24:09;99110.63;;;-12.12;62.21
42727;BME280;28372;56.832;60.658;2022-12-15T07:26:38;99124.84;;;-12.08;62.04
42727;BME280;28372;56.832;60.658;2022-12-15T07:29:05;99112.78;;;-12.15;62.34
42727;BME280;28372;56.832;60.658;2022-12-15T07:31:33;99119.47;;;-12.06;62.64
42727;BME280;28372;56.832;60.658;2022-12-15T07:34:00;99128.13;;;-12.27;62.88
42727;BME280;28372;56.832;60.658;2022-12-15T07:36:28;99113.38;;;-12.20;63.31
42727;BME280;28372;56.832;60.658;2022-12-15T07:38:57;99095.19;;;-12.07;63.77
42727;BME280;28372;56.832;60.658;2022-12-15T07:41:27;99077.22;;;-12.23;63.53
42727;BME280;28372;56.832;60.658;2022-12-15T07:43:56;99095.13;;;-12.13;63.27
42727;BME280;28372;56.832;60.658;2022-12-15T07:46:25;99108.66;;;-12.03;63.90
42727;BME280;28372;56.832;60.658;2022-12-15T07:48:53;99092.59;;;-12.00;64.06
42727;BME280;28372;56.832;60.658;2022-12-15T07:51:21;99083.59;;;-11.97;64.38
42727;BME280;28372;56.832;60.658;2022-12-15T07:53:49;99094.81;;;-11.97;64.24
42727;BME280;28372;56.832;60.658;2022-12-15T07:56:18;99103.28;;;-11.95;64.29
42727;BME280;28372;56.832;60.658;2022-12-15T07:58:46;99074.00;;;-11.83;64.27
42727;BME280;28372;56.832;60.658;2022-12-15T08:01:14;99106.53;;;-11.73;64.25
42727;BME280;28372;56.832;60.658;2022-12-15T08:03:42;99078.66;;;-11.72;64.07
42727;BME280;28372;56.832;60.658;2022-12-15T08:06:12;99077.03;;;-11.73;64.89
42727;BME280;28372;56.832;60.658;2022-12-15T08:08:43;99060.00;;;-11.69;64.54
42727;BME280;28372;56.832;60.658;2022-12-15T08:11:19;99072.06;;;-11.68;64.72
42727;BME280;28372;56.832;60.658;2022-12-15T08:13:47;99073.94;;;-11.48;64.66
42727;BME280;28372;56.832;60.658;2022-12-15T08:16:29;99071.69;;;-11.51;64.75
42727;BME280;28372;56.832;60.658;2022-12-15T08:18:56;99067.13;;;-11.43;64.81
42727;BME280;28372;56.832;60.658;2022-12-15T08:21:24;99066.31;;;-11.37;64.95
42727;BME280;28372;56.832;60.658;2022-12-15T08:23:52;99053.88;;;-11.34;64.86
42727;BME280;28372;56.832;60.658;2022-12-15T08:26:19;99061.72;;;-11.21;64.77
42727;BME280;28372;56.832;60.658;2022-12-15T08:28:55;99063.34;;;-11.20;64.90
42727;BME280;28372;56.832;60.658;2022-12-15T08:31:43;99059.53;;;-11.04;65.13
42727;BME280;28372;56.832;60.658;2022-12-15T08:34:12;99047.28;;;-11.10;65.46
42727;BME280;28372;56.832;60.658;2022-12-15T08:36:40;99060.75;;;-11.07;65.45
42727;BME280;28372;56.832;60.658;2022-12-15T08:39:08;99049.09;;;-11.04;65.14
42727;BME280;28372;56.832;60.658;2022-12-15T08:41:35;99037.03;;;-10.98;65.96
42727;BME280;28372;56.832;60.658;2022-12-15T08:44:03;99049.50;;;-11.07;66.24
42727;BME280;28372;56.832;60.658;2022-12-15T08:46:32;99045.47;;;-11.10;66.47
42727;BME280;28372;56.832;60.658;2022-12-15T08:49:01;99042.06;;;-11.10;67.05
42727;BME280;28372;56.832;60.658;2022-12-15T08:51:30;99045.28;;;-11.08;67.12
42727;BME280;28372;56.832;60.658;2022-12-15T08:53:59;99028.81;;;-11.02;67.34
42727;BME280;28372;56.832;60.658;2022-12-15T08:56:28;99040.06;;;-11.02;67.23
42727;BME280;28372;56.832;60.658;2022-12-15T08:58:57;99041.69;;;-10.94;67.87
42727;BME280;28372;56.832;60.658;2022-12-15T09:01:27;99036.63;;;-10.89;67.72
42727;BME280;28372;56.832;60.658;2022-12-15T09:03:56;99035.44;;;-10.86;67.84
42727;BME280;28372;56.832;60.658;2022-12-15T09:06:29;99036.03;;;-10.77;67.34
42727;BME280;28372;56.832;60.658;2022-12-15T09:09:01;99031.41;;;-10.75;67.93
42727;BME280;28372;56.832;60.658;2022-12-15T09:11:30;99031.44;;;-10.69;67.82
42727;BME280;28372;56.832;60.658;2022-12-15T09:13:57;99025.59;;;-10.64;67.49
42727;BME280;28372;56.832;60.658;2022-12-15T09:16:25;99034.22;;;-10.50;67.30
42727;BME280;28372;56.832;60.658;2022-12-15T09:18:57;99038.63;;;-10.44;67.53
42727;BME280;28372;56.832;60.658;2022-12-15T09:21:27;99034.38;;;-10.45;67.35
42727;BME280;28372;56.832;60.658;2022-12-15T09:23:59;99023.75;;;-10.43;67.32
42727;BME280;28372;56.832;60.658;2022-12-15T09:26:30;99033.78;;;-10.40;67.75
42727;BME280;28372;56.832;60.658;2022-12-15T09:28:58;99032.59;;;-10.51;67.45
42727;BME280;28372;56.832;60.658;2022-12-15T09:31:28;99027.75;;;-10.41;67.37
42727;BME280;28372;56.832;60.658;2022-12-15T09:33:57;99020.91;;;-10.35;67.66
42727;BME280;28372;56.832;60.658;2022-12-15T09:36:26;99014.81;;;-10.29;66.92
42727;BME280;28372;56.832;60.658;2022-12-15T09:38:53;99028.38;;;-10.39;67.26
42727;BME280;28372;56.832;60.658;2022-12-15T09:41:24;99027.38;;;-10.44;67.09
42727;BME280;28372;56.832;60.658;2022-12-15T09:43:55;99024.13;;;-10.40;66.79
42727;BME280;28372;56.832;60.658;2022-12-15T09:49:40;99032.38;;;-10.43;67.53
42727;BME280;28372;56.832;60.658;2022-12-15T09:52:16;99017.91;;;-10.52;67.15
42727;BME280;28372;56.832;60.658;2022-12-15T09:54:44;99016.69;;;-10.49;67.40
42727;BME280;28372;56.832;60.658;2022-12-15T09:57:43;99020.72;;;-10.47;66.87
42727;BME280;28372;56.832;60.658;2022-12-15T10:00:28;98977.94;;;-10.79;66.75
42727;BME280;28372;56.832;60.658;2022-12-15T10:08:34;99004.88;;;-10.86;66.80
42727;BME280;28372;56.832;60.658;2022-12-15T10:14:17;99000.06;;;-10.95;66.57
42727;BME280;28372;56.832;60.658;2022-12-15T10:17:00;98993.81;;;-11.01;66.74
42727;BME280;28372;56.832;60.658;2022-12-15T10:20:13;98998.66;;;-10.98;66.26
42727;BME280;28372;56.832;60.658;2022-12-15T10:22:44;99005.91;;;-10.93;65.97
42727;BME280;28372;56.832;60.658;2022-12-15T10:25:24;98996.84;;;-11.04;65.91
42727;BME280;28372;56.832;60.658;2022-12-15T10:28:38;98993.66;;;-10.99;65.93
42727;BME280;28372;56.832;60.658;2022-12-15T10:34:21;98992.22;;;-11.02;65.52
42727;BME280;28372;56.832;60.658;2022-12-15T10:36:51;98994.25;;;-11.17;65.14
42727;BME280;28372;56.832;60.658;2022-12-15T10:39:20;98981.97;;;-11.24;65.57
42727;BME280;28372;56.832;60.658;2022-12-15T10:42:12;98983.38;;;-11.34;65.47
42727;BME280;28372;56.832;60.658;2022-12-15T10:44:43;98985.16;;;-11.48;65.66
42727;BME280;28372;56.832;60.658;2022-12-15T10:47:23;98985.38;;;-11.50;66.05
42727;BME280;28372;56.832;60.658;2022-12-15T10:50:16;99017.69;;;-11.51;66.33
42727;BME280;28372;56.832;60.658;2022-12-15T10:52:50;98975.69;;;-11.56;66.06
42727;BME280;28372;56.832;60.658;2022-12-15T10:55:38;98984.59;;;-11.37;66.02
42727;BME280;28372;56.832;60.658;2022-12-15T10:58:18;98982.75;;;-11.37;66.00
42727;BME280;28372;56.832;60.658;2022-12-15T11:00:48;98991.78;;;-11.39;65.66
42727;BME280;28372;56.832;60.658;2022-12-15T11:03:35;99001.44;;;-11.46;65.59
42727;BME280;28372;56.832;60.658;2022-12-15T11:06:13;98979.13;;;-11.49;65.54
42727;BME280;28372;56.832;60.658;2022-12-15T11:08:43;98978.75;;;-11.46;65.27
42727;BME280;28372;56.832;60.658;2022-12-15T11:11:30;98980.72;;;-11.61;65.30
42727;BME280;28372;56.832;60.658;2022-12-15T11:14:22;98974.28;;;-11.59;65.59
42727;BME280;28372;56.832;60.658;2022-12-15T11:16:55;98961.84;;;-11.63;65.54
42727;BME280;28372;56.832;60.658;2022-12-15T11:19:27;98998.34;;;-11.70;64.93
42727;BME280;28372;56.832;60.658;2022-12-15T11:22:08;98991.31;;;-11.76;64.69
42727;BME280;28372;56.832;60.658;2022-12-15T11:24:46;98969.38;;;-12.09;65.02
42727;BME280;28372;56.832;60.658;2022-12-15T11:27:27;98982.78;;;-12.18;65.28
42727;BME280;28372;56.832;60.658;2022-12-15T11:32:33;98966.53;;;-12.55;65.96
42727;BME280;28372;56.832;60.658;2022-12-15T11:35:01;98950.69;;;-12.61;65.96
42727;BME280;28372;56.832;60.658;2022-12-15T11:37:39;98960.25;;;-12.68;66.57
42727;BME280;28372;56.832;60.658;2022-12-15T11:40:38;98970.28;;;-12.71;66.28
42727;BME280;28372;56.832;60.658;2022-12-15T11:49:22;98950.38;;;-13.07;66.04
42727;BME280;28372;56.832;60.658;2022-12-15T11:52:02;98934.56;;;-13.13;65.91
42727;BME280;28372;56.832;60.658;2022-12-15T11:54:49;98950.91;;;-13.19;65.93
42727;BME280;28372;56.832;60.658;2022-12-15T12:00:19;98951.69;;;-13.25;66.19
42727;BME280;28372;56.832;60.658;2022-12-15T12:05:57;98946.59;;;-13.33;66.85
42727;BME280;28372;56.832;60.658;2022-12-15T12:11:43;98938.34;;;-13.43;66.58
42727;BME280;28372;56.832;60.658;2022-12-15T12:17:02;98947.25;;;-13.53;66.96
42727;BME280;28372;56.832;60.658;2022-12-15T12:19:41;98950.19;;;-13.63;66.84
42727;BME280;28372;56.832;60.658;2022-12-15T12:25:04;98963.78;;;-13.61;66.93
42727;BME280;28372;56.832;60.658;2022-12-15T12:27:43;98955.69;;;-13.72;66.59
42727;BME280;28372;56.832;60.658;2022-12-15T12:30:22;98963.91;;;-13.90;67.31
42727;BME280;28372;56.832;60.658;2022-12-15T12:32:58;98977.56;;;-14.03;67.35
42727;BME280;28372;56.832;60.658;2022-12-15T12:35:37;98949.44;;;-14.15;68.06
42727;BME280;28372;56.832;60.658;2022-12-15T12:38:11;98958.03;;;-14.14;67.97
42727;BME280;28372;56.832;60.658;2022-12-15T12:43:09;98955.34;;;-14.06;68.12
42727;BME280;28372;56.832;60.658;2022-12-15T12:51:40;98943.84;;;-14.48;68.66
42727;BME280;28372;56.832;60.658;2022-12-15T12:56:57;98934.03;;;-14.68;69.28
42727;BME280;28372;56.832;60.658;2022-12-15T13:01:56;98929.91;;;-14.62;69.55
42727;BME280;28372;56.832;60.658;2022-12-15T13:06:56;98938.16;;;-14.73;69.86
42727;BME280;28372;56.832;60.658;2022-12-15T13:09:41;98933.06;;;-14.67;70.33
42727;BME280;28372;56.832;60.658;2022-12-15T13:12:32;98933.50;;;-14.78;69.48
42727;BME280;28372;56.832;60.658;2022-12-15T13:18:15;98934.84;;;-14.97;70.37
42727;BME280;28372;56.832;60.658;2022-12-15T13:20:44;98943.34;;;-15.03;70.29
42727;BME280;28372;56.832;60.658;2022-12-15T13:23:32;98939.13;;;-15.04;70.46
42727;BME280;28372;56.832;60.658;2022-12-15T13:26:10;98941.72;;;-15.04;70.61
42727;BME280;28372;56.832;60.658;2022-12-15T13:28:42;98908.16;;;-15.59;70.97
42727;BME280;28372;56.832;60.658;2022-12-15T13:44:46;98917.69;;;-15.51;71.96
42727;BME280;28372;56.832;60.658;2022-12-15T13:49:48;98910.75;;;-15.59;71.88
42727;BME280;28372;56.832;60.658;2022-12-15T13:52:46;98912.50;;;-15.51;72.23
42727;BME280;28372;56.832;60.658;2022-12-15T13:55:39;98907.25;;;-15.66;72.57
42727;BME280;28372;56.832;60.658;2022-12-15T13:58:17;98901.72;;;-15.63;72.61
42727;BME280;28372;56.832;60.658;2022-12-15T14:00:50;98895.16;;;-15.74;72.89
42727;BME280;28372;56.832;60.658;2022-12-15T14:03:18;98901.34;;;-15.75;73.29
42727;BME280;28372;56.832;60.658;2022-12-15T14:05:51;98897.91;;;-15.75;73.52
42727;BME280;28372;56.832;60.658;2022-12-15T14:08:22;98908.75;;;-15.72;73.50
42727;BME280;28372;56.832;60.658;2022-12-15T14:10:53;98910.09;;;-15.76;73.72
42727;BME280;28372;56.832;60.658;2022-12-15T14:13:28;98897.69;;;-15.65;73.27
42727;BME280;28372;56.832;60.658;2022-12-15T14:18:33;98854.94;;;-16.08;74.10
42727;BME280;28372;56.832;60.658;2022-12-15T14:21:06;98898.09;;;-15.92;74.28
42727;BME280;28372;56.832;60.658;2022-12-15T14:23:40;98913.88;;;-16.01;73.52
42727;BME280;28372;56.832;60.658;2022-12-15T14:26:28;98911.72;;;-16.21;74.25
42727;BME280;28372;56.832;60.658;2022-12-15T14:29:03;98897.59;;;-16.18;74.58
42727;BME280;28372;56.832;60.658;2022-12-15T14:31:32;98901.00;;;-16.18;74.87
42727;BME280;28372;56.832;60.658;2022-12-15T14:34:07;98909.56;;;-16.17;74.71
42727;BME280;28372;56.832;60.658;2022-12-15T14:36:38;98905.53;;;-16.20;74.95
42727;BME280;28372;56.832;60.658;2022-12-15T14:41:56;98890.13;;;-16.13;74.72
42727;BME280;28372;56.832;60.658;2022-12-15T14:47:13;98877.25;;;-16.30;73.89
42727;BME280;28372;56.832;60.658;2022-12-15T14:49:44;98906.97;;;-16.17;74.19
42727;BME280;28372;56.832;60.658;2022-12-15T14:52:35;98894.50;;;-16.14;73.77
42727;BME280;28372;56.832;60.658;2022-12-15T14:55:34;98891.63;;;-16.19;74.31
42727;BME280;28372;56.832;60.658;2022-12-15T14:58:28;98890.38;;;-16.00;74.47
42727;BME280;28372;56.832;60.658;2022-12-15T15:00:59;98906.59;;;-16.06;73.00
42727;BME280;28372;56.832;60.658;2022-12-15T15:03:35;98905.31;;;-16.10;73.66
42727;BME280;28372;56.832;60.658;2022-12-15T15:08:42;98883.38;;;-15.99;72.31
42727;BME280;28372;56.832;60.658;2022-12-15T15:11:35;98891.63;;;-15.96;71.95
42727;BME280;28372;56.832;60.658;2022-12-15T15:14:09;98872.69;;;-16.19;71.42